createdAt,value
2018-09-03T00:00:16.527Z,88.20
2018-09-03T00:02:49.678Z,87.14
2018-09-03T00:05:22.696Z,88.22
2018-09-03T00:07:55.875Z,87.48
2018-09-03T00:10:28.990Z,87.60
2018-09-03T00:13:02.092Z,88.30
2018-09-03T00:15:35.092Z,88.43
2018-09-03T00:18:08.274Z,87.88
2018-09-03T00:20:41.583Z,87.60
2018-09-03T00:23:14.527Z,87.71
2018-09-03T00:25:47.735Z,87.42
2018-09-03T00:28:20.824Z,87.49
2018-09-03T00:31:13.608Z,88.06
2018-09-03T00:33:52.276Z,87.69
2018-09-03T00:36:47.959Z,87.94
2018-09-03T00:39:27.051Z,87.72
2018-09-03T00:42:05.863Z,87.29
2018-09-03T00:44:44.734Z,87.56
2018-09-03T00:47:17.835Z,87.50
2018-09-03T00:49:51.058Z,87.46
2018-09-03T00:52:24.159Z,87.19
2018-09-03T00:54:57.155Z,86.79
2018-09-03T00:57:30.159Z,86.40
2018-09-03T01:00:03.288Z,85.70
2018-09-03T01:02:36.491Z,85.26
2018-09-03T01:05:09.587Z,85.41
2018-09-03T01:07:42.560Z,86.06
2018-09-03T01:10:17.668Z,85.29
2018-09-03T01:12:50.652Z,85.78
2018-09-03T01:15:23.764Z,85.77
2018-09-03T01:17:57.847Z,86.43
2018-09-03T01:20:31.641Z,85.62
2018-09-03T01:23:04.659Z,86.11
2018-09-03T01:25:37.603Z,85.66
2018-09-03T01:28:10.549Z,86.20
2018-09-03T01:30:43.676Z,86.09
2018-09-03T01:33:16.711Z,86.39
2018-09-03T01:35:49.720Z,85.79
2018-09-03T01:38:22.864Z,86.05
2018-09-03T01:40:56.551Z,86.17
2018-09-03T01:43:29.584Z,85.87
2018-09-03T01:46:02.719Z,86.13
2018-09-03T01:48:35.670Z,85.78
2018-09-03T01:51:08.695Z,84.72
2018-09-03T01:53:41.767Z,85.31
2018-09-03T01:56:14.703Z,85.22
2018-09-03T01:58:47.805Z,85.72
2018-09-03T02:01:20.897Z,86.29
2018-09-03T02:03:53.919Z,86.17
2018-09-03T02:06:27.107Z,85.47
2018-09-03T02:09:00.186Z,86.74
2018-09-03T02:11:33.388Z,87.03
2018-09-03T02:14:06.632Z,86.25
2018-09-03T02:16:39.898Z,86.32
2018-09-03T02:19:13.021Z,86.27
2018-09-03T02:21:46.139Z,86.63
2018-09-03T02:24:19.220Z,86.65
2018-09-03T02:26:52.215Z,87.47
2018-09-03T02:29:25.421Z,86.97
2018-09-03T02:31:58.591Z,86.53
2018-09-03T02:34:31.624Z,86.54
2018-09-03T02:37:04.780Z,86.96
2018-09-03T02:39:37.824Z,86.37
2018-09-03T02:42:10.988Z,87.17
2018-09-03T02:47:17.031Z,86.57
2018-09-03T02:49:50.147Z,87.10
2018-09-03T02:52:23.141Z,85.73
2018-09-03T02:54:56.247Z,85.55
2018-09-03T02:57:30.250Z,85.77
2018-09-03T03:00:03.483Z,86.04
2018-09-03T03:02:36.567Z,85.78
2018-09-03T03:05:09.596Z,85.75
2018-09-03T03:07:42.636Z,86.50
2018-09-03T03:10:15.943Z,86.71
2018-09-03T03:12:49.176Z,86.41
2018-09-03T03:15:22.376Z,86.46
2018-09-03T03:17:55.418Z,86.86
2018-09-03T03:20:28.360Z,87.12
2018-09-03T03:23:01.491Z,86.33
2018-09-03T03:25:34.593Z,86.65
2018-09-03T03:28:07.683Z,87.56
2018-09-03T03:30:41.346Z,87.94
2018-09-03T03:33:14.387Z,88.00
2018-09-03T03:35:47.428Z,87.23
2018-09-03T03:38:20.400Z,86.77
2018-09-03T03:40:53.491Z,85.83
2018-09-03T03:43:26.512Z,83.94
2018-09-03T03:45:59.687Z,85.66
2018-09-03T03:48:32.865Z,85.45
2018-09-03T03:51:05.824Z,85.07
2018-09-03T03:53:38.928Z,84.41
2018-09-03T03:56:11.923Z,84.57
2018-09-03T03:58:44.999Z,85.32
2018-09-03T04:01:18.107Z,85.23
2018-09-03T04:03:51.099Z,85.55
2018-09-03T04:06:25.317Z,85.80
2018-09-03T04:08:58.623Z,85.44
2018-09-03T04:11:31.635Z,85.78
2018-09-03T04:14:04.639Z,85.49
2018-09-03T04:16:37.739Z,85.78
2018-09-03T04:19:10.866Z,86.46
2018-09-03T04:21:44.053Z,86.34
2018-09-03T04:24:17.059Z,87.21
2018-09-03T04:26:50.392Z,86.52
2018-09-03T04:29:23.483Z,85.30
2018-09-03T04:31:56.656Z,85.30
2018-09-03T04:34:29.659Z,86.86
2018-09-03T04:37:02.793Z,86.72
2018-09-03T04:39:36.884Z,86.53
2018-09-03T04:42:09.968Z,87.21
2018-09-03T04:44:43.095Z,87.54
2018-09-03T04:47:18.253Z,86.05
2018-09-03T04:49:51.347Z,86.87
2018-09-03T04:52:24.504Z,87.85
2018-09-03T04:54:57.559Z,87.42
2018-09-03T04:57:30.513Z,88.14
2018-09-03T05:00:03.847Z,87.30
2018-09-03T05:02:36.952Z,87.94
2018-09-03T05:05:10.124Z,89.26
2018-09-03T05:07:43.183Z,88.85
2018-09-03T05:10:17.335Z,89.88
2018-09-03T05:12:50.420Z,89.91
2018-09-03T05:15:23.589Z,89.29
2018-09-03T05:17:56.484Z,89.88
2018-09-03T05:20:30.600Z,90.23
2018-09-03T05:23:03.687Z,90.24
2018-09-03T05:25:36.739Z,91.06
2018-09-03T05:28:09.883Z,91.22
2018-09-03T05:30:43.031Z,91.19
2018-09-03T05:33:16.203Z,90.35
2018-09-03T05:35:49.194Z,90.25
2018-09-03T05:38:22.502Z,90.90
2018-09-03T05:43:29.308Z,91.33
2018-09-03T05:46:02.334Z,91.14
2018-09-03T05:48:36.381Z,91.42
2018-09-03T05:51:09.579Z,91.78
2018-09-03T05:53:42.687Z,90.74
2018-09-03T05:56:15.808Z,90.62
2018-09-03T05:58:50.028Z,90.52
2018-09-03T06:01:23.007Z,90.92
2018-09-03T06:03:56.108Z,90.92
2018-09-03T06:06:29.235Z,90.87
2018-09-03T06:09:02.263Z,90.54
2018-09-03T06:11:35.352Z,90.52
2018-09-03T06:14:08.619Z,90.50
2018-09-03T06:16:41.627Z,91.01
2018-09-03T06:19:14.766Z,90.78
2018-09-03T06:21:47.828Z,90.99
2018-09-03T06:24:20.923Z,90.74
2018-09-03T06:26:54.151Z,89.76
2018-09-03T06:29:27.342Z,89.88
2018-09-03T06:32:00.332Z,89.75
2018-09-03T06:34:34.463Z,89.84
2018-09-03T06:37:07.576Z,89.58
2018-09-03T06:39:34.527Z,88.74
2018-09-03T06:42:06.051Z,88.67
2018-09-03T06:44:33.062Z,89.08
2018-09-03T06:47:00.017Z,88.66
2018-09-03T06:49:26.980Z,89.04
2018-09-03T06:51:53.924Z,88.99
2018-09-03T06:54:20.900Z,87.98
2018-09-03T06:56:47.903Z,87.80
2018-09-03T06:59:14.896Z,87.57
2018-09-03T07:01:42.486Z,88.73
2018-09-03T07:04:09.443Z,87.88
2018-09-03T07:06:36.388Z,87.46
2018-09-03T07:09:06.795Z,87.70
2018-09-03T07:11:33.797Z,86.92
2018-09-03T07:14:01.755Z,86.66
2018-09-03T07:16:28.766Z,86.96
2018-09-03T07:18:55.692Z,85.87
2018-09-03T07:21:22.763Z,85.77
2018-09-03T07:23:49.709Z,84.95
2018-09-03T07:26:16.627Z,85.54
2018-09-03T07:28:44.576Z,85.34
2018-09-03T07:31:11.482Z,84.96
2018-09-03T07:33:38.437Z,84.08
2018-09-03T07:36:05.403Z,84.23
2018-09-03T07:38:32.365Z,83.88
2018-09-03T07:40:59.339Z,83.60
2018-09-03T07:43:26.283Z,83.08
2018-09-03T07:45:53.192Z,83.23
2018-09-03T07:48:21.134Z,81.67
2018-09-03T07:50:48.097Z,81.18
2018-09-03T07:53:15.051Z,82.24
2018-09-03T07:55:42.052Z,82.40
2018-09-03T07:58:09.128Z,80.16
2018-09-03T08:00:38.159Z,80.22
2018-09-03T08:03:06.040Z,80.26
2018-09-03T08:05:32.997Z,79.57
2018-09-03T08:08:00.531Z,80.65
2018-09-03T08:10:28.050Z,80.16
2018-09-03T08:12:55.063Z,80.73
2018-09-03T08:15:21.995Z,80.85
2018-09-03T08:17:48.876Z,80.94
2018-09-03T08:20:15.863Z,82.05
2018-09-03T08:22:42.833Z,81.64
2018-09-03T08:25:11.612Z,81.97
2018-09-03T08:27:38.547Z,82.08
2018-09-03T08:30:06.308Z,82.28
2018-09-03T08:32:33.206Z,81.80
2018-09-03T08:35:00.187Z,81.36
2018-09-03T08:37:27.155Z,81.10
2018-09-03T08:39:54.092Z,80.36
2018-09-03T08:42:21.079Z,80.74
2018-09-03T08:44:48.068Z,80.64
2018-09-03T08:47:14.973Z,78.91
2018-09-03T08:49:42.004Z,79.71
2018-09-03T08:52:09.992Z,79.96
2018-09-03T08:54:36.967Z,79.60
2018-09-03T08:57:04.591Z,80.02
2018-09-03T08:59:31.600Z,78.85
2018-09-03T09:01:58.471Z,78.93
2018-09-03T09:04:28.699Z,78.76
2018-09-03T09:06:55.611Z,78.93
2018-09-03T09:09:26.091Z,78.52
2018-09-03T09:11:53.089Z,78.61
2018-09-03T09:14:19.980Z,77.52
2018-09-03T09:16:46.936Z,75.56
2018-09-03T09:19:14.611Z,73.91
2018-09-03T09:21:41.536Z,73.49
2018-09-03T09:24:09.447Z,74.28
2018-09-03T09:26:42.268Z,73.28
2018-09-03T09:29:11.039Z,74.11
2018-09-03T09:31:39.635Z,72.85
2018-09-03T09:34:06.580Z,71.80
2018-09-03T09:36:35.110Z,73.58
2018-09-03T09:39:02.099Z,72.63
2018-09-03T09:41:32.272Z,70.08
2018-09-03T09:44:01.044Z,69.56
2018-09-03T09:46:29.861Z,68.65
2018-09-03T09:48:56.751Z,66.04
2018-09-03T09:51:24.619Z,66.53
2018-09-03T09:53:51.571Z,66.36
2018-09-03T09:56:18.560Z,64.87
2018-09-03T09:58:45.488Z,63.49
2018-09-03T10:01:18.847Z,64.05
2018-09-03T10:03:45.723Z,65.34
2018-09-03T10:06:12.715Z,64.04
2018-09-03T10:08:39.655Z,64.13
2018-09-03T10:11:06.623Z,63.72
2018-09-03T10:13:33.607Z,63.44
2018-09-03T10:16:00.551Z,61.04
2018-09-03T10:18:27.500Z,60.06
2018-09-03T10:20:54.550Z,59.93
2018-09-03T10:23:21.428Z,61.14
2018-09-03T10:25:48.379Z,59.94
2018-09-03T10:28:15.365Z,59.62
2018-09-03T10:30:42.267Z,62.91
2018-09-03T10:33:09.244Z,65.16
2018-09-03T10:35:37.247Z,63.85
2018-09-03T10:38:06.170Z,64.61
2018-09-03T10:40:33.063Z,64.41
2018-09-03T10:43:00.720Z,65.08
2018-09-03T10:45:27.720Z,63.83
2018-09-03T10:47:54.675Z,62.30
2018-09-03T10:50:21.643Z,64.01
2018-09-03T10:52:48.579Z,64.27
2018-09-03T10:55:15.571Z,63.11
2018-09-03T10:57:43.529Z,62.78
2018-09-03T11:00:10.496Z,63.00
2018-09-03T11:02:37.471Z,62.14
2018-09-03T11:05:04.439Z,61.88
2018-09-03T11:07:31.357Z,63.11
2018-09-03T11:09:58.322Z,65.18
2018-09-03T11:12:25.302Z,64.51
2018-09-03T11:14:52.247Z,63.55
2018-09-03T11:17:19.187Z,62.60
2018-09-03T11:19:56.676Z,62.48
2018-09-03T11:22:23.664Z,62.89
2018-09-03T11:24:50.790Z,60.47
2018-09-03T11:27:17.775Z,58.75
2018-09-03T11:29:44.843Z,56.59
2018-09-03T11:32:11.791Z,57.77
2018-09-03T11:34:38.708Z,56.82
2018-09-03T11:37:05.951Z,56.47
2018-09-03T11:39:32.889Z,57.46
2018-09-03T11:41:59.859Z,56.18
2018-09-03T11:44:26.836Z,56.03
2018-09-03T11:46:54.690Z,56.59
2018-09-03T11:49:21.646Z,57.72
2018-09-03T11:51:48.594Z,58.14
2018-09-03T11:54:15.511Z,57.39
2018-09-03T11:56:45.255Z,56.65
2018-09-03T11:59:12.209Z,57.37
2018-09-03T12:01:39.675Z,58.64
2018-09-03T12:04:06.610Z,60.08
2018-09-03T12:06:33.606Z,62.72
2018-09-03T12:09:00.553Z,64.19
2018-09-03T12:11:27.555Z,64.07
2018-09-03T12:13:54.503Z,64.29
2018-09-03T12:16:24.371Z,64.11
2018-09-03T12:18:52.559Z,63.91
2018-09-03T12:21:19.588Z,63.95
2018-09-03T12:23:46.490Z,63.81
2018-09-03T12:26:13.503Z,62.01
2018-09-03T12:28:40.515Z,61.77
2018-09-03T12:31:07.984Z,61.75
2018-09-03T12:33:34.962Z,62.80
2018-09-03T12:36:02.395Z,60.61
2018-09-03T12:38:29.385Z,59.22
2018-09-03T12:40:56.327Z,56.90
2018-09-03T12:43:23.314Z,58.66
2018-09-03T12:45:56.159Z,59.25
2018-09-03T12:48:23.103Z,59.19
2018-09-03T12:50:50.280Z,58.12
2018-09-03T12:53:17.269Z,58.29
2018-09-03T12:55:44.323Z,56.79
2018-09-03T12:58:11.255Z,57.32
2018-09-03T13:00:38.672Z,57.09
2018-09-03T13:03:05.236Z,55.96
2018-09-03T13:05:32.148Z,55.59
2018-09-03T13:07:59.111Z,53.41
2018-09-03T13:10:26.063Z,54.58
2018-09-03T13:12:53.088Z,53.11
2018-09-03T13:15:20.017Z,54.59
2018-09-03T13:17:46.975Z,53.48
2018-09-03T13:20:13.878Z,51.92
2018-09-03T13:22:41.121Z,52.55
2018-09-03T13:25:08.107Z,52.63
2018-09-03T13:27:35.107Z,54.43
2018-09-03T13:30:02.051Z,53.21
2018-09-03T13:32:29.083Z,50.82
2018-09-03T13:34:56.183Z,50.07
2018-09-03T13:37:23.125Z,51.19
2018-09-03T13:39:50.088Z,50.31
2018-09-03T13:42:17.061Z,49.28
2018-09-03T13:44:44.177Z,50.91
2018-09-03T13:47:11.036Z,49.71
2018-09-03T13:49:38.046Z,50.22
2018-09-03T13:52:05.282Z,51.57
2018-09-03T13:54:32.191Z,51.63
2018-09-03T13:56:59.194Z,50.86
2018-09-03T13:59:26.164Z,51.15
2018-09-03T14:01:53.134Z,51.53
2018-09-03T14:04:20.071Z,52.66
2018-09-03T14:06:47.021Z,52.21
2018-09-03T14:09:14.062Z,50.83
2018-09-03T14:11:41.157Z,49.88
2018-09-03T14:14:08.075Z,50.12
2018-09-03T14:16:35.039Z,50.33
2018-09-03T14:19:02.099Z,50.85
2018-09-03T14:21:29.051Z,49.94
2018-09-03T14:23:56.038Z,50.31
2018-09-03T14:26:24.032Z,51.17
2018-09-03T14:28:51.045Z,49.84
2018-09-03T14:31:18.237Z,49.09
2018-09-03T14:33:45.195Z,50.72
2018-09-03T14:36:12.153Z,50.44
2018-09-03T14:38:39.204Z,49.85
2018-09-03T14:41:06.320Z,48.87
2018-09-03T14:43:33.334Z,50.14
2018-09-03T14:46:00.320Z,49.90
2018-09-03T14:48:27.307Z,49.67
2018-09-03T14:50:54.285Z,48.69
2018-09-03T14:53:22.628Z,49.12
2018-09-03T14:55:49.558Z,49.40
2018-09-03T14:58:16.484Z,49.63
2018-09-03T15:00:43.514Z,50.07
2018-09-03T15:03:10.568Z,49.45
2018-09-03T15:05:37.466Z,49.22
2018-09-03T15:08:04.633Z,48.10
2018-09-03T15:10:32.302Z,49.72
2018-09-03T15:12:59.263Z,50.61
2018-09-03T15:15:26.260Z,51.75
2018-09-03T15:17:53.150Z,51.19
2018-09-03T15:20:20.131Z,49.53
2018-09-03T15:22:47.100Z,49.31
2018-09-03T15:25:14.876Z,50.07
2018-09-03T15:27:42.025Z,51.66
2018-09-03T15:30:08.992Z,51.01
2018-09-03T15:32:36.007Z,50.38
2018-09-03T15:35:03.039Z,50.40
2018-09-03T15:37:29.983Z,49.79
2018-09-03T15:39:57.839Z,49.16
2018-09-03T15:42:24.809Z,49.78
2018-09-03T15:44:51.854Z,49.21
2018-09-03T15:47:19.862Z,47.74
2018-09-03T15:49:46.775Z,47.96
2018-09-03T15:52:13.748Z,48.09
2018-09-03T15:54:40.720Z,49.47
2018-09-03T15:57:07.671Z,48.90
2018-09-03T15:59:34.619Z,50.25
2018-09-03T16:02:01.579Z,50.55
2018-09-03T16:04:28.547Z,50.35
2018-09-03T16:06:55.501Z,51.09
2018-09-03T16:09:22.477Z,51.04
2018-09-03T16:11:49.396Z,52.21
2018-09-03T16:14:16.379Z,51.51
2018-09-03T16:16:43.348Z,51.32
2018-09-03T16:19:10.289Z,51.32
2018-09-03T16:21:37.223Z,54.51
2018-09-03T16:24:04.336Z,55.85
2018-09-03T16:26:31.312Z,55.12
2018-09-03T16:28:58.270Z,55.65
2018-09-03T16:31:25.191Z,54.41
2018-09-03T16:33:52.205Z,55.01
2018-09-03T16:36:19.225Z,54.56
2018-09-03T16:38:46.224Z,54.57
2018-09-03T16:41:13.107Z,55.49
2018-09-03T16:43:40.044Z,55.99
2018-09-03T16:46:07.015Z,55.71
2018-09-03T16:48:33.996Z,55.80
2018-09-03T16:51:01.309Z,55.76
2018-09-03T16:53:28.227Z,56.22
2018-09-03T16:55:55.248Z,56.47
2018-09-03T16:58:22.281Z,55.67
2018-09-03T17:00:49.199Z,55.65
2018-09-03T17:03:16.132Z,57.66
2018-09-03T17:05:43.101Z,57.09
2018-09-03T17:08:10.282Z,58.14
2018-09-03T17:10:37.133Z,57.14
2018-09-03T17:13:04.075Z,56.78
2018-09-03T17:15:31.019Z,57.50
2018-09-03T17:17:57.978Z,57.69
2018-09-03T17:20:24.969Z,57.34
2018-09-03T17:22:51.918Z,57.49
2018-09-03T17:25:18.863Z,56.45
2018-09-03T17:27:45.831Z,56.73
2018-09-03T17:30:12.825Z,58.58
2018-09-03T17:32:39.842Z,58.93
2018-09-03T17:35:06.787Z,59.62
2018-09-03T17:37:33.716Z,59.83
2018-09-03T17:40:00.616Z,60.27
2018-09-03T17:42:27.576Z,60.26
2018-09-03T17:44:54.546Z,59.32
2018-09-03T17:47:21.480Z,58.54
2018-09-03T17:49:48.546Z,59.57
2018-09-03T17:52:15.363Z,60.20
2018-09-03T17:54:42.347Z,60.35
2018-09-03T17:57:09.347Z,60.50
2018-09-03T17:59:36.287Z,60.97
2018-09-03T18:02:03.272Z,61.98
2018-09-03T18:04:30.179Z,61.86
2018-09-03T18:06:57.157Z,62.72
2018-09-03T18:09:24.087Z,62.65
2018-09-03T18:11:51.096Z,61.94
2018-09-03T18:14:18.019Z,61.19
2018-09-03T18:16:44.965Z,62.09
2018-09-03T18:19:12.020Z,62.38
2018-09-03T18:21:39.009Z,62.38
2018-09-03T18:24:05.929Z,63.40
2018-09-03T18:26:32.875Z,63.70
2018-09-03T18:28:59.879Z,63.87
2018-09-03T18:31:26.779Z,63.63
2018-09-03T18:33:53.788Z,63.67
2018-09-03T18:36:20.745Z,64.38
2018-09-03T18:38:47.713Z,63.54
2018-09-03T18:41:14.650Z,64.13
2018-09-03T18:43:41.515Z,65.33
2018-09-03T18:46:08.471Z,64.91
2018-09-03T18:48:35.420Z,65.38
2018-09-03T18:51:02.406Z,64.94
2018-09-03T18:53:29.396Z,65.58
2018-09-03T18:55:56.251Z,65.11
2018-09-03T18:58:23.231Z,65.67
2018-09-03T19:00:50.205Z,65.73
2018-09-03T19:03:17.239Z,66.68
2018-09-03T19:05:44.223Z,67.08
2018-09-03T19:08:11.128Z,66.73
2018-09-03T19:10:38.951Z,68.16
2018-09-03T19:13:05.908Z,67.32
2018-09-03T19:15:32.887Z,66.48
2018-09-03T19:17:59.795Z,67.12
2018-09-03T19:20:26.748Z,67.15
2018-09-03T19:22:53.670Z,66.71
2018-09-03T19:25:20.628Z,67.42
2018-09-03T19:27:47.570Z,66.25
2018-09-03T19:30:14.521Z,66.27
2018-09-03T19:32:41.525Z,66.27
2018-09-03T19:35:08.523Z,67.04
2018-09-03T19:37:35.532Z,66.40
2018-09-03T19:40:02.455Z,67.84
2018-09-03T19:42:29.399Z,67.52
2018-09-03T19:44:56.343Z,68.20
2018-09-03T19:47:23.300Z,67.12
2018-09-03T19:49:50.271Z,67.10
2018-09-03T19:52:17.191Z,64.78
2018-09-03T19:54:44.176Z,65.42
2018-09-03T19:57:11.134Z,64.15
2018-09-03T19:59:38.120Z,64.79
2018-09-03T20:02:05.145Z,66.67
2018-09-03T20:04:32.120Z,67.52
2018-09-03T20:06:59.042Z,66.88
2018-09-03T20:09:26.071Z,65.90
2018-09-03T20:11:52.988Z,64.46
2018-09-03T20:14:19.956Z,65.80
2018-09-03T20:16:46.891Z,66.37
2018-09-03T20:19:13.855Z,67.05
2018-09-03T20:21:40.875Z,67.67
2018-09-03T20:24:08.491Z,68.72
2018-09-03T20:26:35.462Z,68.16
2018-09-03T20:29:02.403Z,69.67
2018-09-03T20:31:29.392Z,68.37
2018-09-03T20:33:56.392Z,68.50
2018-09-03T20:36:23.409Z,68.40
2018-09-03T20:38:50.231Z,68.45
2018-09-03T20:41:17.199Z,64.55
2018-09-03T20:43:44.131Z,66.11
2018-09-03T20:46:12.105Z,67.93
2018-09-03T20:48:39.056Z,67.84
2018-09-03T20:51:06.245Z,68.62
2018-09-03T20:53:34.019Z,68.87
2018-09-03T20:56:01.091Z,69.52
2018-09-03T20:58:28.039Z,69.16
2018-09-03T21:00:55.035Z,68.53
2018-09-03T21:03:21.965Z,69.85
2018-09-03T21:05:49.990Z,67.91
2018-09-03T21:08:17.021Z,69.45
2018-09-03T21:10:45.001Z,69.89
2018-09-03T21:13:11.954Z,70.07
2018-09-03T21:15:38.909Z,70.60
2018-09-03T21:18:05.867Z,70.10
2018-09-03T21:20:32.799Z,70.08
2018-09-03T21:22:59.775Z,69.58
2018-09-03T21:25:26.731Z,70.23
2018-09-03T21:27:53.700Z,70.36
2018-09-03T21:30:20.603Z,69.47
2018-09-03T21:32:47.674Z,69.99
2018-09-03T21:35:15.575Z,70.16
2018-09-03T21:37:42.524Z,70.54
2018-09-03T21:40:09.484Z,71.06
2018-09-03T21:42:36.439Z,71.35
2018-09-03T21:45:03.458Z,70.77
2018-09-03T21:47:33.475Z,70.75
2018-09-03T21:50:00.428Z,71.00
2018-09-03T21:52:27.310Z,71.62
2018-09-03T21:54:54.331Z,72.12
2018-09-03T21:57:21.263Z,71.95
2018-09-03T21:59:50.263Z,72.55
2018-09-03T22:02:17.223Z,73.23
2018-09-03T22:04:44.195Z,72.51
2018-09-03T22:07:11.554Z,72.93
2018-09-03T22:09:38.507Z,72.81
2018-09-03T22:12:05.605Z,72.59
2018-09-03T22:14:33.060Z,73.38
2018-09-03T22:17:00.000Z,72.20
2018-09-03T22:19:26.947Z,72.81
2018-09-03T22:21:53.914Z,73.07
2018-09-03T22:24:20.841Z,73.29
2018-09-03T22:26:47.807Z,73.89
2018-09-03T22:29:14.783Z,73.14
2018-09-03T22:31:41.788Z,73.22
2018-09-03T22:34:08.696Z,74.20
2018-09-03T22:36:36.691Z,74.62
2018-09-03T22:39:04.495Z,74.44
2018-09-03T22:41:31.416Z,73.77
2018-09-03T22:43:58.368Z,74.99
2018-09-03T22:46:25.336Z,75.61
2018-09-03T22:48:52.471Z,73.50
2018-09-03T22:51:19.535Z,75.35
2018-09-03T22:53:46.511Z,76.14
2018-09-03T22:56:13.472Z,76.55
2018-09-03T22:58:40.401Z,75.89
2018-09-03T23:01:07.411Z,75.47
2018-09-03T23:03:34.380Z,75.46
2018-09-03T23:06:01.311Z,75.38
2018-09-03T23:08:28.291Z,76.08
2018-09-03T23:10:55.219Z,76.41
2018-09-03T23:13:23.095Z,76.75
2018-09-03T23:15:52.798Z,76.09
2018-09-03T23:18:20.471Z,76.83
2018-09-03T23:20:47.499Z,77.09
2018-09-03T23:23:14.425Z,76.60
2018-09-03T23:25:41.393Z,76.44
2018-09-03T23:28:08.330Z,77.59
2018-09-03T23:30:35.312Z,77.06
2018-09-03T23:33:03.151Z,77.32
2018-09-03T23:35:30.135Z,77.21
2018-09-03T23:37:57.079Z,78.08
2018-09-03T23:40:24.023Z,78.15
2018-09-03T23:42:50.875Z,78.25
2018-09-03T23:45:17.851Z,77.13
2018-09-03T23:47:44.764Z,77.69
2018-09-03T23:50:11.800Z,77.40
2018-09-03T23:52:38.675Z,75.75
2018-09-03T23:55:05.858Z,76.21
2018-09-03T23:57:32.831Z,76.04
2018-09-03T23:59:59.783Z,76.85
